Time;durP1;ratioP1;P1;durP2;ratioP2;P2;SDS_P1;SDS_P2;PMS_P1;PMS_P2;Temp;Humidity;BMP_temperature;BMP_pressure;BME280_temperature;BME280_humidity;BME280_pressure;Samples;Min_cycle;Max_cycle;Signal;HPM_P1;HPM_P2
2021/10/11 00:00:34;;;;;;;69.33;42.57;;;10.40;86.60;;;;;;5033475;28;20204;-86
2021/10/11 00:03:00;;;;;;;69.27;43.70;;;10.40;87.10;;;;;;5032987;28;20649;-86
2021/10/11 00:05:26;;;;;;;60.97;43.30;;;10.30;87.60;;;;;;5033141;28;20173;-86
2021/10/11 00:07:51;;;;;;;75.00;46.37;;;10.30;88.00;;;;;;5032925;28;20200;-86
2021/10/11 00:10:20;;;;;;;69.70;45.83;;;10.30;88.30;;;;;;5032831;28;20184;-86
2021/10/11 00:12:49;;;;;;;76.00;49.13;;;10.30;88.80;;;;;;5032663;28;20595;-86
2021/10/11 00:15:20;;;;;;;70.23;46.30;;;10.30;88.80;;;;;;5032632;28;20209;-86
2021/10/11 00:17:46;;;;;;;72.33;48.20;;;10.30;88.70;;;;;;5032583;28;20203;-86
2021/10/11 00:20:14;;;;;;;78.73;48.30;;;10.30;89.00;;;;;;5032787;28;20177;-86
2021/10/11 00:22:41;;;;;;;69.70;45.20;;;10.30;88.90;;;;;;5032551;28;20200;-86
2021/10/11 00:25:07;;;;;;;74.17;48.03;;;10.30;88.90;;;;;;5033721;28;20535;-86
2021/10/11 00:27:34;;;;;;;76.97;48.77;;;10.30;89.40;;;;;;5032439;28;20180;-86
2021/10/11 00:30:01;;;;;;;70.67;47.90;;;10.30;89.40;;;;;;5033600;28;20188;-86
2021/10/11 00:32:27;;;;;;;77.87;47.67;;;10.50;89.10;;;;;;5032365;28;20183;-86
2021/10/11 00:34:52;;;;;;;63.70;42.90;;;10.50;89.20;;;;;;5032342;28;20669;-86
2021/10/11 00:37:18;;;;;;;63.50;44.57;;;10.50;89.20;;;;;;5032263;28;20179;-86
2021/10/11 00:39:44;;;;;;;67.87;45.70;;;10.50;89.10;;;;;;5033330;28;20208;-86
2021/10/11 00:42:10;;;;;;;69.40;47.37;;;10.50;89.30;;;;;;5033489;28;20195;-86
2021/10/11 00:44:36;;;;;;;62.07;45.40;;;10.50;89.90;;;;;;5033446;28;20183;-86
2021/10/11 00:47:02;;;;;;;73.23;47.73;;;10.60;89.90;;;;;;5033402;28;20165;-86
2021/10/11 00:49:28;;;;;;;69.77;46.47;;;10.60;89.80;;;;;;5033262;28;20193;-86
2021/10/11 00:51:55;;;;;;;71.90;48.33;;;10.70;90.30;;;;;;5033314;28;20176;-86
2021/10/11 00:54:26;;;;;;;72.27;49.17;;;10.70;90.40;;;;;;5033594;28;20275;-86
2021/10/11 00:56:51;;;;;;;72.53;48.27;;;10.70;90.70;;;;;;5032139;28;20165;-86
2021/10/11 00:59:17;;;;;;;74.20;47.97;;;10.70;90.60;;;;;;5031884;28;20277;-86
2021/10/11 01:01:43;;;;;;;64.93;46.20;;;10.80;90.90;;;;;;5031958;28;20179;-86
2021/10/11 01:04:09;;;;;;;76.17;49.03;;;10.80;91.20;;;;;;5031955;28;20176;-87
2021/10/11 01:06:39;;;;;;;68.00;45.90;;;10.80;91.30;;;;;;5033578;28;20264;-86
2021/10/11 01:09:07;;;;;;;72.20;48.23;;;10.80;91.30;;;;;;5032246;28;20193;-86
2021/10/11 01:11:32;;;;;;;75.23;48.23;;;10.80;91.20;;;;;;5036020;28;20181;-86
2021/10/11 01:13:58;;;;;;;74.37;46.17;;;10.80;91.30;;;;;;5035891;28;20545;-86
2021/10/11 01:16:24;;;;;;;70.57;45.17;;;10.80;91.40;;;;;;5037156;28;20176;-86
2021/10/11 01:18:50;;;;;;;68.13;44.53;;;10.80;91.40;;;;;;5036983;28;20188;-86
2021/10/11 01:21:16;;;;;;;77.57;46.47;;;10.90;91.50;;;;;;5035828;28;20176;-86
2021/10/11 01:23:41;;;;;;;65.57;41.93;;;10.90;91.60;;;;;;5035792;28;20184;-86
2021/10/11 01:26:07;;;;;;;67.77;43.23;;;10.90;91.60;;;;;;5037013;28;20208;-86
2021/10/11 01:28:33;;;;;;;68.27;43.60;;;11.00;91.40;;;;;;5036903;28;20712;-86
2021/10/11 01:30:58;;;;;;;66.50;40.10;;;11.00;91.80;;;;;;5035728;28;20646;-86
2021/10/11 01:33:24;;;;;;;68.17;41.30;;;11.00;91.90;;;;;;5035605;28;20677;-86
2021/10/11 01:35:50;;;;;;;67.87;39.93;;;11.00;91.80;;;;;;5035554;28;20176;-86
2021/10/11 01:38:16;;;;;;;61.93;35.43;;;11.10;91.80;;;;;;5035408;28;20772;-86
2021/10/11 01:40:41;;;;;;;60.47;38.33;;;11.10;91.90;;;;;;5036815;28;20161;-86
2021/10/11 01:43:08;;;;;;;63.23;37.33;;;11.10;91.80;;;;;;5036717;28;20251;-86
2021/10/11 01:45:35;;;;;;;57.80;37.13;;;11.10;91.80;;;;;;5036587;28;20203;-86
2021/10/11 01:48:03;;;;;;;55.23;35.97;;;11.20;91.70;;;;;;5035255;28;20184;-86
2021/10/11 01:50:28;;;;;;;61.87;37.27;;;11.10;91.60;;;;;;5036467;28;20715;-86
2021/10/11 01:52:54;;;;;;;66.27;38.23;;;11.10;91.40;;;;;;5036710;28;20212;-86
2021/10/11 01:55:20;;;;;;;60.03;37.93;;;11.00;91.40;;;;;;5035132;28;20180;-86
2021/10/11 01:57:45;;;;;;;62.83;38.07;;;11.10;91.40;;;;;;5036314;28;20580;-87
2021/10/11 02:00:11;;;;;;;60.20;36.83;;;11.10;91.30;;;;;;5035514;28;20199;-87
2021/10/11 02:02:37;;;;;;;52.37;34.33;;;11.10;91.30;;;;;;5036492;28;20214;-87
2021/10/11 02:05:05;;;;;;;50.20;33.87;;;11.10;91.30;;;;;;5035008;28;20176;-87
2021/10/11 02:07:30;;;;;;;50.27;32.57;;;11.10;91.30;;;;;;5035445;28;20346;-87
2021/10/11 02:09:56;;;;;;;49.13;31.73;;;11.00;91.20;;;;;;5034849;28;20239;-86
2021/10/11 02:12:22;;;;;;;47.40;32.40;;;11.10;91.00;;;;;;5034828;28;20653;-86
2021/10/11 02:14:48;;;;;;;42.23;30.20;;;11.10;91.00;;;;;;5034790;28;20254;-86
2021/10/11 02:17:18;;;;;;;44.33;30.20;;;11.10;90.90;;;;;;5036380;28;20173;-86
2021/10/11 02:19:44;;;;;;;52.80;30.90;;;11.10;90.90;;;;;;5034692;28;20197;-87
2021/10/11 02:22:10;;;;;;;47.57;30.00;;;11.00;90.90;;;;;;5033908;28;20177;-87
2021/10/11 02:24:35;;;;;;;44.73;30.60;;;11.00;91.10;;;;;;5035889;28;20213;-87
2021/10/11 02:27:01;;;;;;;55.90;32.63;;;10.90;90.90;;;;;;5035821;28;20279;-87
2021/10/11 02:29:29;;;;;;;60.17;34.40;;;10.90;91.00;;;;;;5035782;28;20211;-87
2021/10/11 02:31:55;;;;;;;47.37;31.90;;;10.80;91.00;;;;;;5034639;28;20181;-87
2021/10/11 02:34:21;;;;;;;49.87;32.50;;;10.80;91.10;;;;;;5034420;28;20258;-87
2021/10/11 02:36:47;;;;;;;50.30;32.23;;;10.80;91.10;;;;;;5035653;28;20645;-87
2021/10/11 02:39:12;;;;;;;47.40;31.27;;;10.80;91.10;;;;;;5034223;28;20269;-87
2021/10/11 02:41:38;;;;;;;47.07;32.20;;;10.80;91.00;;;;;;5034440;28;20592;-87
2021/10/11 02:44:04;;;;;;;51.93;33.67;;;10.70;91.00;;;;;;5035580;28;20176;-87
2021/10/11 02:46:30;;;;;;;47.57;31.33;;;10.70;90.90;;;;;;5035585;28;20180;-86
2021/10/11 02:48:55;;;;;;;51.73;31.37;;;10.60;90.90;;;;;;5034199;28;20197;-87
2021/10/11 02:51:21;;;;;;;42.80;29.37;;;10.60;90.90;;;;;;5034193;28;20552;-87
2021/10/11 02:53:49;;;;;;;45.27;28.93;;;10.60;90.90;;;;;;5035250;28;20730;-87
2021/10/11 02:56:19;;;;;;;47.87;28.60;;;10.60;90.90;;;;;;5035887;28;20177;-87
2021/10/11 02:58:45;;;;;;;40.47;27.47;;;10.70;90.80;;;;;;5033990;28;20196;-87
2021/10/11 03:01:12;;;;;;;36.80;25.10;;;10.70;90.80;;;;;;5035224;28;20590;-87
2021/10/11 03:03:38;;;;;;;35.97;24.90;;;10.70;90.60;;;;;;5033883;28;20271;-87
2021/10/11 03:06:05;;;;;;;40.13;24.03;;;10.70;90.40;;;;;;5035180;28;20180;-87
2021/10/11 03:08:34;;;;;;;34.77;22.90;;;10.70;90.20;;;;;;5035258;28;20193;-86
2021/10/11 03:11:01;;;;;;;35.93;22.63;;;10.60;90.00;;;;;;5035091;28;20227;-87
2021/10/11 03:13:28;;;;;;;39.97;25.67;;;10.60;89.80;;;;;;5033660;28;20192;-87
2021/10/11 03:15:53;;;;;;;38.63;23.83;;;10.60;89.70;;;;;;5034928;28;20173;-87
2021/10/11 03:18:20;;;;;;;35.63;23.23;;;10.60;89.80;;;;;;5034279;28;20287;-86
2021/10/11 03:20:45;;;;;;;33.57;23.23;;;10.60;89.70;;;;;;5033631;28;20180;-86
2021/10/11 03:23:11;;;;;;;37.07;24.47;;;10.50;89.60;;;;;;5034776;28;20185;-86
2021/10/11 03:25:37;;;;;;;31.27;21.63;;;10.50;89.60;;;;;;5033598;28;20192;-86
2021/10/11 03:28:03;;;;;;;33.37;23.30;;;10.50;89.50;;;;;;5033395;28;20184;-86
2021/10/11 03:30:29;;;;;;;34.13;23.27;;;10.50;89.40;;;;;;5033495;28;20327;-86
2021/10/11 03:32:55;;;;;;;31.50;22.73;;;10.50;89.30;;;;;;5032244;28;20694;-86
2021/10/11 03:35:20;;;;;;;32.80;23.43;;;10.50;89.30;;;;;;5033508;28;20271;-87
2021/10/11 03:37:47;;;;;;;31.53;21.97;;;10.50;89.10;;;;;;5033127;28;20173;-86
2021/10/11 03:40:13;;;;;;;37.07;24.57;;;10.60;89.00;;;;;;5034533;28;20188;-87
2021/10/11 03:42:38;;;;;;;34.93;23.03;;;10.60;89.20;;;;;;5034699;28;20739;-86
2021/10/11 03:45:05;;;;;;;42.00;25.30;;;10.60;89.20;;;;;;5033640;28;20271;-86
2021/10/11 03:47:31;;;;;;;41.93;24.17;;;10.60;89.50;;;;;;5033131;28;20192;-86
2021/10/11 03:49:56;;;;;;;38.10;24.57;;;10.60;89.60;;;;;;5034401;28;20713;-87
2021/10/11 03:52:22;;;;;;;39.30;23.47;;;10.70;89.80;;;;;;5033932;28;20180;-87
2021/10/11 03:54:48;;;;;;;40.23;24.93;;;10.70;89.70;;;;;;5034115;28;20203;-86
2021/10/11 03:57:13;;;;;;;38.37;19.70;;;10.70;89.90;;;;;;5032904;28;20179;-87
2021/10/11 03:59:39;;;;;;;42.63;21.10;;;10.90;91.00;;;;;;5034035;28;20683;-86
2021/10/11 04:02:04;;;;;;;41.93;24.20;;;11.00;91.10;;;;;;5032839;28;20179;-87
2021/10/11 04:04:32;;;;;;;44.73;23.73;;;10.90;91.20;;;;;;5032812;28;20209;-86
2021/10/11 04:07:02;;;;;;;49.63;25.33;;;10.90;91.40;;;;;;5033967;28;20172;-86
2021/10/11 04:09:29;;;;;;;47.17;22.07;;;10.90;91.50;;;;;;5032643;28;20748;-86
2021/10/11 04:11:55;;;;;;;42.37;22.83;;;10.90;91.70;;;;;;5032621;28;20200;-86
2021/10/11 04:14:24;;;;;;;45.07;21.13;;;10.90;91.60;;;;;;5032642;28;20204;-86
2021/10/11 04:16:51;;;;;;;41.73;21.17;;;11.00;91.60;;;;;;5034101;28;20175;-86
2021/10/11 04:19:16;;;;;;;38.43;19.67;;;11.00;91.60;;;;;;5032513;28;20196;-86
2021/10/11 04:21:42;;;;;;;44.93;19.67;;;11.00;91.70;;;;;;5034011;28;20168;-87
2021/10/11 04:24:09;;;;;;;39.03;20.70;;;11.00;91.60;;;;;;5033650;28;20222;-87
2021/10/11 04:26:35;;;;;;;42.87;22.50;;;11.00;91.70;;;;;;5033688;28;20179;-87
2021/10/11 04:29:01;;;;;;;38.60;21.37;;;11.00;91.80;;;;;;5033538;28;20279;-87
2021/10/11 04:31:27;;;;;;;43.27;19.97;;;11.00;91.90;;;;;;5033653;28;20204;-87
2021/10/11 04:33:52;;;;;;;36.17;19.03;;;11.00;91.80;;;;;;5033524;28;20193;-87
2021/10/11 04:36:21;;;;;;;39.73;19.53;;;11.00;91.90;;;;;;5033701;28;20168;-87
2021/10/11 04:38:47;;;;;;;38.13;18.90;;;11.00;91.90;;;;;;5033367;28;20196;-87
2021/10/11 04:41:13;;;;;;;34.80;20.30;;;11.00;91.90;;;;;;5032315;28;20527;-87
2021/10/11 04:43:38;;;;;;;39.33;19.37;;;11.10;91.90;;;;;;5033638;28;20176;-86
2021/10/11 04:46:04;;;;;;;31.37;17.40;;;11.10;91.80;;;;;;5033588;28;20226;-87
2021/10/11 04:48:30;;;;;;;32.13;16.80;;;11.00;91.80;;;;;;5032184;28;20226;-87
2021/10/11 04:50:55;;;;;;;31.70;16.57;;;11.10;91.90;;;;;;5032095;28;20187;-87
2021/10/11 04:53:21;;;;;;;28.40;16.30;;;11.00;92.00;;;;;;5031970;28;20695;-87
2021/10/11 04:55:47;;;;;;;32.83;16.17;;;11.00;91.90;;;;;;5033198;28;20204;-87
2021/10/11 04:58:13;;;;;;;28.20;14.03;;;11.00;91.90;;;;;;5031890;28;20266;-87
2021/10/11 05:00:39;;;;;;;28.00;16.73;;;11.00;91.80;;;;;;5032847;28;20183;-87
2021/10/11 05:03:04;;;;;;;30.43;15.63;;;10.90;91.60;;;;;;5031979;28;20176;-87
2021/10/11 05:05:32;;;;;;;27.60;14.80;;;10.90;91.50;;;;;;5031951;28;20260;-87
2021/10/11 05:07:58;;;;;;;26.10;13.80;;;10.90;91.50;;;;;;5033156;28;20196;-87
2021/10/11 05:10:24;;;;;;;32.50;15.63;;;10.90;91.40;;;;;;5031924;28;20176;-87
2021/10/11 05:12:50;;;;;;;23.90;13.10;;;10.80;91.30;;;;;;5033166;28;20191;-87
2021/10/11 05:15:17;;;;;;;25.53;15.03;;;10.70;91.00;;;;;;5033110;28;20696;-87
2021/10/11 05:17:43;;;;;;;24.67;14.37;;;10.60;90.70;;;;;;5033193;28;20172;-87
2021/10/11 05:20:10;;;;;;;30.07;15.13;;;10.60;90.80;;;;;;5031774;28;20687;-87
2021/10/11 05:22:35;;;;;;;24.33;13.73;;;10.50;90.70;;;;;;5031755;28;20203;-87
2021/10/11 05:25:01;;;;;;;21.70;13.83;;;10.50;90.80;;;;;;5031755;28;20636;-87
2021/10/11 05:27:27;;;;;;;20.67;12.93;;;10.40;90.70;;;;;;5033069;28;20181;-87
2021/10/11 05:29:53;;;;;;;26.63;12.73;;;10.30;90.40;;;;;;5031653;28;20263;-87
2021/10/11 05:32:18;;;;;;;24.40;13.40;;;10.20;90.20;;;;;;5033004;28;20173;-87
2021/10/11 05:34:45;;;;;;;21.23;12.40;;;10.20;90.00;;;;;;5031597;28;20258;-87
2021/10/11 05:37:11;;;;;;;24.60;13.67;;;10.10;89.80;;;;;;5031664;28;20323;-87
2021/10/11 05:39:38;;;;;;;22.60;13.00;;;10.10;89.70;;;;;;5031565;28;20826;-87
2021/10/11 05:42:06;;;;;;;20.37;13.37;;;10.00;89.40;;;;;;5031675;28;20599;-87
2021/10/11 05:44:32;;;;;;;20.70;13.80;;;10.00;89.20;;;;;;5031638;28;20176;-87
2021/10/11 05:46:58;;;;;;;22.43;13.90;;;9.90;89.20;;;;;;5031605;28;20707;-87
2021/10/11 05:49:24;;;;;;;21.07;12.90;;;9.90;89.10;;;;;;5031502;28;20205;-87
2021/10/11 05:51:50;;;;;;;21.37;13.17;;;9.90;89.00;;;;;;5032675;28;20180;-87
2021/10/11 05:54:15;;;;;;;17.23;12.60;;;9.80;88.80;;;;;;5031503;28;20254;-87
2021/10/11 05:56:41;;;;;;;24.47;16.17;;;9.80;88.70;;;;;;5032791;28;20177;-87
2021/10/11 05:59:07;;;;;;;26.67;16.20;;;9.80;88.90;;;;;;5036402;28;20192;-87
2021/10/11 06:01:33;;;;;;;25.57;15.60;;;9.70;89.40;;;;;;5036539;28;20184;-87
2021/10/11 06:03:58;;;;;;;29.67;16.07;;;9.70;89.50;;;;;;5035062;28;20172;-87
2021/10/11 06:06:24;;;;;;;32.10;17.13;;;9.70;89.40;;;;;;5036242;28;20215;-87
2021/10/11 06:08:49;;;;;;;27.80;17.57;;;9.70;89.80;;;;;;5034968;28;20209;-87
2021/10/11 06:11:16;;;;;;;34.57;18.37;;;9.60;90.50;;;;;;5034903;28;20180;-87
2021/10/11 06:13:43;;;;;;;29.43;16.53;;;9.50;90.90;;;;;;5034843;28;20215;-87
2021/10/11 06:16:08;;;;;;;26.73;16.87;;;9.50;91.10;;;;;;5036133;28;20264;-87
2021/10/11 06:18:34;;;;;;;32.87;17.53;;;9.50;91.40;;;;;;5036075;28;20271;-87
2021/10/11 06:20:59;;;;;;;31.50;14.43;;;9.50;91.50;;;;;;5034756;28;20625;-87
2021/10/11 06:23:25;;;;;;;23.80;13.27;;;9.60;91.50;;;;;;5036180;28;20536;-87
2021/10/11 06:25:51;;;;;;;25.83;13.27;;;9.60;91.30;;;;;;5035877;28;20264;-87
2021/10/11 06:28:18;;;;;;;24.10;12.97;;;9.60;91.60;;;;;;5035919;28;20283;-87
2021/10/11 06:30:45;;;;;;;19.67;11.00;;;9.70;91.60;;;;;;5036108;28;20611;-87
2021/10/11 06:33:12;;;;;;;26.00;11.03;;;9.70;91.60;;;;;;5035496;28;20605;-87
2021/10/11 06:35:38;;;;;;;22.97;11.30;;;9.70;91.70;;;;;;5034883;28;20608;-87
2021/10/11 06:38:03;;;;;;;26.20;11.30;;;9.70;91.60;;;;;;5035594;28;20201;-87
2021/10/11 06:40:29;;;;;;;24.23;11.40;;;9.80;92.10;;;;;;5034496;28;20264;-87
2021/10/11 06:42:55;;;;;;;20.57;10.67;;;9.80;92.30;;;;;;5034483;28;20191;-87
2021/10/11 06:45:20;;;;;;;24.90;12.20;;;9.80;92.20;;;;;;5035662;28;20633;-87
2021/10/11 06:47:47;;;;;;;27.00;11.63;;;10.00;92.70;;;;;;5034264;28;20177;-87
2021/10/11 06:50:13;;;;;;;26.80;12.67;;;10.10;92.90;;;;;;5035812;28;20256;-87
2021/10/11 06:52:39;;;;;;;30.27;13.23;;;10.20;93.10;;;;;;5035497;28;20173;-87
2021/10/11 06:55:05;;;;;;;29.83;13.10;;;10.30;93.20;;;;;;5034172;28;20204;-87
2021/10/11 06:57:30;;;;;;;29.50;13.60;;;10.40;93.30;;;;;;5034031;28;20222;-87
2021/10/11 06:59:56;;;;;;;27.90;12.57;;;10.50;93.50;;;;;;5035243;28;20279;-87
2021/10/11 07:02:22;;;;;;;26.47;12.03;;;10.60;93.50;;;;;;5034039;28;20213;-87
2021/10/11 07:04:54;;;;;;;24.77;11.63;;;10.60;93.40;;;;;;5035236;28;20184;-87
2021/10/11 07:07:22;;;;;;;21.40;10.87;;;10.60;93.40;;;;;;5035172;28;20157;-87
2021/10/11 07:09:48;;;;;;;30.47;11.13;;;10.60;93.40;;;;;;5035419;28;20197;-87
2021/10/11 07:12:13;;;;;;;24.13;10.60;;;10.60;93.30;;;;;;5033964;28;20199;-87
2021/10/11 07:14:39;;;;;;;22.03;10.30;;;10.70;93.30;;;;;;5034997;28;20200;-87
2021/10/11 07:17:05;;;;;;;24.47;9.70;;;10.70;93.20;;;;;;5033869;28;20295;-87
2021/10/11 07:19:31;;;;;;;23.47;10.10;;;10.80;93.10;;;;;;5033814;28;20251;-87
2021/10/11 07:21:56;;;;;;;22.77;9.07;;;10.90;93.00;;;;;;5033728;28;20173;-87
2021/10/11 07:24:22;;;;;;;19.37;8.47;;;10.90;92.80;;;;;;5033770;28;20198;-87
2021/10/11 07:26:49;;;;;;;19.17;7.37;;;10.80;92.60;;;;;;5033698;28;20634;-87
2021/10/11 07:29:14;;;;;;;22.90;7.37;;;10.80;92.50;;;;;;5033794;28;20200;-87
2021/10/11 07:31:40;;;;;;;17.40;7.77;;;10.90;92.40;;;;;;5033710;28;20177;-87
2021/10/11 07:34:06;;;;;;;23.83;8.27;;;10.90;92.30;;;;;;5033438;28;20211;-87
2021/10/11 07:36:32;;;;;;;22.30;7.63;;;11.10;92.30;;;;;;5034792;28;20168;-87
2021/10/11 07:38:58;;;;;;;26.37;7.47;;;11.20;92.20;;;;;;5034681;28;20221;-87
2021/10/11 07:41:24;;;;;;;19.17;7.77;;;11.30;92.00;;;;;;5034688;28;20173;-87
2021/10/11 07:43:49;;;;;;;26.27;7.70;;;11.30;91.60;;;;;;5034682;28;20176;-87
2021/10/11 07:46:15;;;;;;;17.67;7.13;;;11.30;91.60;;;;;;5034483;28;20243;-87
2021/10/11 07:48:41;;;;;;;22.23;6.50;;;11.40;91.60;;;;;;5034418;28;20644;-87
2021/10/11 07:51:07;;;;;;;22.47;6.80;;;11.50;91.70;;;;;;5033245;28;20188;-87
2021/10/11 07:53:32;;;;;;;29.50;6.20;;;11.70;91.50;;;;;;5033343;28;20247;-87
2021/10/11 07:55:58;;;;;;;17.53;5.60;;;11.80;91.50;;;;;;5033141;28;20181;-88
2021/10/11 07:58:24;;;;;;;21.80;5.07;;;11.90;91.00;;;;;;5034257;28;20188;-87
2021/10/11 08:00:50;;;;;;;21.37;4.97;;;12.00;90.00;;;;;;5033589;28;20272;-87
2021/10/11 08:03:17;;;;;;;19.53;5.13;;;12.00;89.90;;;;;;5033004;28;20227;-87
2021/10/11 08:05:43;;;;;;;22.63;4.47;;;12.10;90.00;;;;;;5034539;28;20637;-87
2021/10/11 08:08:09;;;;;;;14.27;4.50;;;12.10;89.40;;;;;;5032863;28;20207;-87
2021/10/11 08:10:35;;;;;;;19.87;4.90;;;12.20;89.70;;;;;;5033980;28;20180;-87
2021/10/11 08:13:01;;;;;;;14.87;4.43;;;12.20;89.90;;;;;;5033686;28;20176;-87
2021/10/11 08:15:27;;;;;;;16.43;3.93;;;12.30;90.30;;;;;;5032811;28;20187;-87
2021/10/11 08:17:53;;;;;;;17.87;3.87;;;12.40;89.90;;;;;;5033967;28;20177;-87
2021/10/11 08:20:19;;;;;;;12.57;4.13;;;12.30;89.50;;;;;;5033271;28;20252;-87
2021/10/11 08:22:45;;;;;;;11.00;3.17;;;12.30;88.70;;;;;;5032519;28;20173;-87
2021/10/11 08:25:11;;;;;;;15.60;4.17;;;12.30;88.80;;;;;;5032514;28;20203;-87
2021/10/11 08:27:37;;;;;;;19.33;3.60;;;12.30;88.50;;;;;;5033690;28;20632;-87
2021/10/11 08:30:04;;;;;;;18.67;3.83;;;12.30;88.60;;;;;;5032343;28;20224;-87
2021/10/11 08:32:30;;;;;;;20.23;3.80;;;12.30;88.80;;;;;;5032293;28;20226;-87
2021/10/11 08:34:56;;;;;;;17.83;3.90;;;12.50;88.30;;;;;;5033543;28;20201;-87
2021/10/11 08:37:23;;;;;;;7.50;3.00;;;12.60;87.40;;;;;;5033884;28;20531;-88
2021/10/11 08:39:50;;;;;;;14.90;3.63;;;12.70;87.30;;;;;;5032394;28;20216;-88
2021/10/11 08:42:16;;;;;;;14.07;3.53;;;12.80;87.80;;;;;;5033805;28;20168;-88
2021/10/11 08:44:43;;;;;;;11.97;3.03;;;12.90;87.80;;;;;;5033696;28;20664;-88
2021/10/11 08:47:10;;;;;;;19.23;3.33;;;12.90;87.10;;;;;;5033641;28;20164;-88
2021/10/11 08:49:40;;;;;;;17.13;3.20;;;12.90;86.30;;;;;;5032548;28;20197;-88
2021/10/11 08:52:06;;;;;;;16.63;3.63;;;13.00;85.60;;;;;;5034220;28;20525;-88
2021/10/11 08:54:32;;;;;;;16.57;2.70;;;13.20;85.40;;;;;;5032450;28;20258;-87
2021/10/11 08:56:57;;;;;;;13.83;2.70;;;13.20;84.50;;;;;;5032952;28;20176;-88
2021/10/11 08:59:28;;;;;;;13.40;2.53;;;13.30;84.10;;;;;;5033591;28;20193;-88
2021/10/11 09:02:09;;;;;;;18.00;2.97;;;13.40;84.70;;;;;;5032290;28;20177;-88
2021/10/11 09:04:50;;;;;;;12.13;2.50;;;13.50;83.60;;;;;;5032080;28;20264;-88
2021/10/11 09:07:16;;;;;;;11.90;2.73;;;13.60;84.60;;;;;;5033392;28;20157;-88
2021/10/11 09:09:46;;;;;;;17.60;3.40;;;13.70;83.40;;;;;;5032000;28;20204;-88
2021/10/11 09:12:20;;;;;;;16.27;3.20;;;13.80;82.70;;;;;;5033402;28;20551;-88
2021/10/11 09:14:52;;;;;;;17.40;2.57;;;13.90;83.50;;;;;;5032220;28;20208;-88
2021/10/11 09:17:24;;;;;;;11.57;2.53;;;14.00;82.40;;;;;;5032128;28;20518;-88
2021/10/11 09:19:57;;;;;;;14.17;2.80;;;14.10;80.80;;;;;;5031924;28;20193;-88
2021/10/11 09:22:37;;;;;;;12.50;2.40;;;14.20;79.50;;;;;;5033856;28;20626;-88
2021/10/11 09:25:05;;;;;;;8.80;1.90;;;14.30;79.00;;;;;;5033447;28;20173;-87
2021/10/11 09:27:42;;;;;;;20.87;3.07;;;14.30;78.90;;;;;;5032246;28;20173;-88
2021/10/11 09:30:12;;;;;;;14.27;2.53;;;14.50;78.80;;;;;;5032477;28;20555;-88
2021/10/11 09:32:38;;;;;;;28.70;3.20;;;14.50;78.40;;;;;;5037857;28;20168;-88
2021/10/11 09:35:09;;;;;;;15.87;2.50;;;14.70;78.40;;;;;;5037317;28;20567;-88
2021/10/11 09:37:35;;;;;;;13.43;2.17;;;14.80;78.40;;;;;;5037203;28;20173;-88
2021/10/11 09:40:01;;;;;;;11.50;2.60;;;15.00;79.10;;;;;;5036097;28;20212;-87
2021/10/11 09:42:29;;;;;;;18.43;2.90;;;14.90;78.30;;;;;;5035734;28;20185;-88
2021/10/11 09:44:57;;;;;;;16.70;2.57;;;15.10;78.70;;;;;;5036914;28;20675;-88
2021/10/11 09:47:30;;;;;;;14.83;2.37;;;15.40;78.70;;;;;;5037119;28;20664;-87
2021/10/11 09:49:56;;;;;;;12.50;2.20;;;15.30;76.10;;;;;;5035523;28;20228;-87
2021/10/11 09:52:23;;;;;;;12.40;2.67;;;15.50;75.60;;;;;;5036934;28;20187;-87
2021/10/11 09:54:49;;;;;;;9.98;2.55;;;15.30;75.20;;;;;;5035495;28;20295;-87
2021/10/11 09:57:16;;;;;;;15.60;2.33;;;15.20;74.90;;;;;;5035374;28;20268;-87
2021/10/11 09:59:44;;;;;;;12.03;2.43;;;14.90;74.20;;;;;;5036587;28;20193;-87
2021/10/11 10:02:11;;;;;;;9.53;2.20;;;14.80;75.50;;;;;;5035398;28;20172;-88
2021/10/11 10:04:40;;;;;;;12.70;2.37;;;14.70;75.20;;;;;;5035359;28;20236;-88
2021/10/11 10:07:09;;;;;;;16.03;1.80;;;14.60;76.40;;;;;;5036619;28;20182;-88
2021/10/11 10:09:39;;;;;;;8.40;2.87;;;14.40;75.90;;;;;;5035269;28;20201;-88
2021/10/11 10:12:05;;;;;;;10.90;2.47;;;14.50;75.90;;;;;;5035122;28;20214;-88
2021/10/11 10:14:33;;;;;;;13.80;1.67;;;14.70;75.80;;;;;;5035053;28;20222;-87
2021/10/11 10:16:59;;;;;;;14.37;2.10;;;15.00;76.30;;;;;;5036665;28;20176;-87
2021/10/11 10:19:35;;;;;;;5.97;1.50;;;15.30;74.70;;;;;;5036184;28;20185;-88
2021/10/11 10:22:13;;;;;;;8.23;1.85;;;15.70;74.40;;;;;;5036257;28;20243;-88
2021/10/11 10:24:40;;;;;;;9.45;1.90;;;15.90;72.10;;;;;;5034831;28;20172;-88
2021/10/11 10:27:11;;;;;;;6.72;1.75;;;15.70;72.30;;;;;;5035350;28;20177;-87
2021/10/11 10:29:47;;;;;;;9.45;1.38;;;15.70;69.80;;;;;;5034937;28;20677;-88
2021/10/11 10:32:16;;;;;;;11.90;2.15;;;15.70;72.70;;;;;;5035138;28;20180;-87
2021/10/11 10:34:44;;;;;;;16.00;2.00;;;15.40;70.90;;;;;;5035730;28;20204;-87
2021/10/11 10:37:11;;;;;;;6.28;1.50;;;15.30;70.70;;;;;;5036228;28;20532;-88
2021/10/11 10:39:43;;;;;;;8.87;1.30;;;14.90;72.20;;;;;;5035721;28;20208;-87
2021/10/11 10:42:19;;;;;;;9.67;1.53;;;14.50;72.70;;;;;;5035684;28;20157;-87
2021/10/11 10:44:46;;;;;;;8.20;2.00;;;14.50;74.00;;;;;;5036035;28;20165;-87
2021/10/11 10:47:12;;;;;;;12.70;2.30;;;14.50;75.20;;;;;;5036045;28;20223;-86
2021/10/11 10:49:43;;;;;;;10.57;2.00;;;14.40;75.80;;;;;;5034405;28;20715;-87
2021/10/11 10:52:12;;;;;;;9.93;2.40;;;14.70;76.10;;;;;;5034357;28;20645;-87
2021/10/11 10:54:44;;;;;;;9.57;1.87;;;15.10;74.10;;;;;;5035635;28;20228;-86
2021/10/11 10:57:14;;;;;;;7.05;1.73;;;15.60;74.60;;;;;;5034252;28;20167;-86
2021/10/11 10:59:48;;;;;;;12.47;2.00;;;16.00;70.80;;;;;;5035300;28;20189;-88
2021/10/11 11:02:14;;;;;;;6.40;1.13;;;16.30;69.50;;;;;;5034149;28;20584;-87
2021/10/11 11:04:51;;;;;;;6.75;1.15;;;16.00;67.10;;;;;;5034225;28;20161;-87
2021/10/11 11:07:21;;;;;;;5.70;1.23;;;15.70;67.90;;;;;;5034107;28;20191;-87
2021/10/11 11:09:47;;;;;;;7.55;1.42;;;15.60;68.30;;;;;;5034063;28;20200;-87
2021/10/11 11:12:14;;;;;;;9.52;2.20;;;15.30;69.40;;;;;;5034068;28;20649;-87
2021/10/11 11:14:45;;;;;;;6.82;1.58;;;15.10;69.50;;;;;;5033980;28;20200;-88
2021/10/11 11:17:14;;;;;;;8.30;1.90;;;14.90;70.50;;;;;;5033816;28;20168;-86
2021/10/11 11:19:43;;;;;;;8.57;1.63;;;14.80;71.10;;;;;;5034845;28;20672;-85
2021/10/11 11:22:13;;;;;;;12.80;1.90;;;14.80;71.70;;;;;;5034816;28;20541;-86
2021/10/11 11:24:49;;;;;;;6.88;1.80;;;14.90;72.40;;;;;;5033816;28;20188;-86
2021/10/11 11:27:28;;;;;;;8.23;1.67;;;15.30;72.30;;;;;;5033601;28;20172;-86
2021/10/11 11:29:55;;;;;;;7.57;1.63;;;15.80;71.30;;;;;;5033490;28;20673;-86
2021/10/11 11:32:21;;;;;;;5.43;1.40;;;16.10;69.90;;;;;;5034693;28;20204;-85
2021/10/11 11:34:47;;;;;;;14.38;1.92;;;16.30;68.60;;;;;;5033570;28;20270;-85
2021/10/11 11:37:13;;;;;;;8.85;1.70;;;16.20;66.70;;;;;;5034608;28;20638;-86
2021/10/11 11:39:38;;;;;;;7.30;1.98;;;16.10;66.80;;;;;;5033077;28;20266;-86
2021/10/11 11:42:04;;;;;;;7.38;1.60;;;16.20;67.30;;;;;;5033211;28;20219;-85
2021/10/11 11:44:30;;;;;;;6.63;1.95;;;16.50;68.00;;;;;;5034451;28;20173;-86
2021/10/11 11:47:10;;;;;;;6.18;1.58;;;16.80;66.20;;;;;;5033287;28;20181;-86
2021/10/11 11:49:40;;;;;;;7.30;1.65;;;16.20;66.90;;;;;;5034666;28;20200;-86
2021/10/11 11:52:08;;;;;;;18.63;1.95;;;15.70;70.40;;;;;;5034614;28;20177;-86
2021/10/11 11:54:35;;;;;;;14.25;2.47;;;15.10;75.30;;;;;;5033440;28;20189;-88
2021/10/11 11:57:03;;;;;;;10.93;1.67;;;14.60;78.60;;;;;;5032999;28;20267;-87
2021/10/11 11:59:29;;;;;;;9.63;1.80;;;14.10;80.10;;;;;;5034053;28;20584;-87
2021/10/11 12:01:57;;;;;;;13.13;2.17;;;13.90;81.00;;;;;;5032775;28;20636;-87
2021/10/11 12:04:24;;;;;;;6.63;1.87;;;13.90;81.50;;;;;;5033981;28;20267;-87
2021/10/11 12:06:50;;;;;;;6.73;1.60;;;13.80;81.80;;;;;;5032650;28;20177;-86
2021/10/11 12:09:22;;;;;;;8.30;2.30;;;14.00;84.00;;;;;;5032529;28;20204;-86
2021/10/11 12:11:59;;;;;;;14.87;2.00;;;14.30;83.40;;;;;;5032968;28;20184;-87
2021/10/11 12:14:28;;;;;;;6.77;1.90;;;14.80;83.10;;;;;;5034147;28;20188;-87
2021/10/11 12:17:06;;;;;;;9.03;1.60;;;15.00;82.20;;;;;;5032576;28;20173;-87
2021/10/11 12:19:37;;;;;;;7.00;2.27;;;14.90;79.70;;;;;;5034261;28;20279;-88
2021/10/11 12:22:04;;;;;;;8.52;2.25;;;14.80;78.60;;;;;;5032959;28;20196;-88
2021/10/11 12:24:34;;;;;;;8.13;2.00;;;14.90;78.30;;;;;;5033073;28;20636;-88
2021/10/11 12:27:05;;;;;;;6.63;1.60;;;14.80;78.40;;;;;;5032759;28;20172;-89
2021/10/11 12:29:33;;;;;;;5.90;1.63;;;14.60;78.90;;;;;;5032787;28;20247;-88
2021/10/11 12:32:09;;;;;;;11.37;2.10;;;14.50;77.40;;;;;;5033900;28;20230;-88